sensor_id;sensor_type;location;lat;lon;timestamp;P1;durP1;ratioP1;P2;durP2;ratioP2
55497;SDS011;41357;52.806;18.268;2024-03-07T00:00:05;17.02;;;8.23;;
55497;SDS011;41357;52.806;18.268;2024-03-07T00:02:45;22.35;;;8.27;;
55497;SDS011;41357;52.806;18.268;2024-03-07T00:05:21;18.08;;;7.55;;
55497;SDS011;41357;52.806;18.268;2024-03-07T00:07:50;22.90;;;8.73;;
55497;SDS011;41357;52.806;18.268;2024-03-07T00:10:16;21.13;;;8.98;;
55497;SDS011;41357;52.806;18.268;2024-03-07T00:12:43;22.35;;;7.22;;
55497;SDS011;41357;52.806;18.268;2024-03-07T00:15:10;20.58;;;7.57;;
55497;SDS011;41357;52.806;18.268;2024-03-07T00:17:37;17.23;;;8.82;;
55497;SDS011;41357;52.806;18.268;2024-03-07T00:20:03;18.30;;;8.70;;
55497;SDS011;41357;52.806;18.268;2024-03-07T00:22:33;18.03;;;8.43;;
55497;SDS011;41357;52.806;18.268;2024-03-07T00:25:00;18.77;;;7.28;;
55497;SDS011;41357;52.806;18.268;2024-03-07T00:27:27;19.77;;;9.18;;
55497;SDS011;41357;52.806;18.268;2024-03-07T00:29:53;19.38;;;7.28;;
55497;SDS011;41357;52.806;18.268;2024-03-07T00:32:22;21.85;;;8.35;;
55497;SDS011;41357;52.806;18.268;2024-03-07T00:34:49;19.85;;;9.77;;
55497;SDS011;41357;52.806;18.268;2024-03-07T00:37:16;22.33;;;8.93;;
55497;SDS011;41357;52.806;18.268;2024-03-07T00:39:42;24.02;;;8.70;;
55497;SDS011;41357;52.806;18.268;2024-03-07T00:42:09;20.58;;;7.97;;
55497;SDS011;41357;52.806;18.268;2024-03-07T00:44:35;20.52;;;7.30;;
55497;SDS011;41357;52.806;18.268;2024-03-07T00:47:01;22.95;;;9.15;;
55497;SDS011;41357;52.806;18.268;2024-03-07T00:49:28;24.50;;;9.52;;
55497;SDS011;41357;52.806;18.268;2024-03-07T00:51:55;24.52;;;10.23;;
55497;SDS011;41357;52.806;18.268;2024-03-07T00:54:21;20.05;;;8.50;;
55497;SDS011;41357;52.806;18.268;2024-03-07T00:56:47;23.52;;;9.05;;
55497;SDS011;41357;52.806;18.268;2024-03-07T00:59:17;23.35;;;9.25;;
55497;SDS011;41357;52.806;18.268;2024-03-07T01:01:43;21.45;;;9.23;;
55497;SDS011;41357;52.806;18.268;2024-03-07T01:04:09;18.60;;;9.65;;
55497;SDS011;41357;52.806;18.268;2024-03-07T01:06:35;21.45;;;9.40;;
55497;SDS011;41357;52.806;18.268;2024-03-07T01:09:02;22.65;;;9.30;;
55497;SDS011;41357;52.806;18.268;2024-03-07T01:11:28;24.70;;;9.88;;
55497;SDS011;41357;52.806;18.268;2024-03-07T01:13:55;26.73;;;9.85;;
55497;SDS011;41357;52.806;18.268;2024-03-07T01:16:22;21.27;;;9.48;;
55497;SDS011;41357;52.806;18.268;2024-03-07T01:18:48;27.55;;;9.45;;
55497;SDS011;41357;52.806;18.268;2024-03-07T01:21:14;22.02;;;8.32;;
55497;SDS011;41357;52.806;18.268;2024-03-07T01:23:40;14.45;;;7.18;;
55497;SDS011;41357;52.806;18.268;2024-03-07T01:26:06;29.65;;;11.18;;
55497;SDS011;41357;52.806;18.268;2024-03-07T01:28:33;20.17;;;9.13;;
55497;SDS011;41357;52.806;18.268;2024-03-07T01:30:59;19.73;;;8.55;;
55497;SDS011;41357;52.806;18.268;2024-03-07T01:33:26;20.20;;;8.50;;
55497;SDS011;41357;52.806;18.268;2024-03-07T01:35:52;24.40;;;9.55;;
55497;SDS011;41357;52.806;18.268;2024-03-07T01:38:18;21.85;;;9.45;;
55497;SDS011;41357;52.806;18.268;2024-03-07T01:40:44;20.77;;;8.07;;
55497;SDS011;41357;52.806;18.268;2024-03-07T01:43:10;19.25;;;9.00;;
55497;SDS011;41357;52.806;18.268;2024-03-07T01:45:37;25.20;;;9.15;;
55497;SDS011;41357;52.806;18.268;2024-03-07T01:48:04;23.60;;;10.02;;
55497;SDS011;41357;52.806;18.268;2024-03-07T01:50:31;30.65;;;10.20;;
55497;SDS011;41357;52.806;18.268;2024-03-07T01:52:57;22.27;;;9.73;;
55497;SDS011;41357;52.806;18.268;2024-03-07T01:55:24;25.40;;;8.95;;
55497;SDS011;41357;52.806;18.268;2024-03-07T01:57:51;19.67;;;8.77;;
55497;SDS011;41357;52.806;18.268;2024-03-07T02:00:18;21.30;;;9.45;;
55497;SDS011;41357;52.806;18.268;2024-03-07T02:02:45;17.67;;;7.78;;
55497;SDS011;41357;52.806;18.268;2024-03-07T02:05:11;25.33;;;10.43;;
55497;SDS011;41357;52.806;18.268;2024-03-07T02:07:39;24.73;;;8.95;;
55497;SDS011;41357;52.806;18.268;2024-03-07T02:10:05;26.13;;;8.70;;
55497;SDS011;41357;52.806;18.268;2024-03-07T02:12:32;23.08;;;8.82;;
55497;SDS011;41357;52.806;18.268;2024-03-07T02:14:58;23.80;;;9.88;;
55497;SDS011;41357;52.806;18.268;2024-03-07T02:17:27;22.85;;;8.55;;
55497;SDS011;41357;52.806;18.268;2024-03-07T02:19:53;22.52;;;10.02;;
55497;SDS011;41357;52.806;18.268;2024-03-07T02:22:19;18.63;;;8.57;;
55497;SDS011;41357;52.806;18.268;2024-03-07T02:24:46;19.92;;;8.35;;
55497;SDS011;41357;52.806;18.268;2024-03-07T02:27:12;24.60;;;9.80;;
55497;SDS011;41357;52.806;18.268;2024-03-07T02:29:42;21.75;;;9.15;;
55497;SDS011;41357;52.806;18.268;2024-03-07T02:32:08;25.15;;;9.55;;
55497;SDS011;41357;52.806;18.268;2024-03-07T02:34:35;28.02;;;9.32;;
55497;SDS011;41357;52.806;18.268;2024-03-07T02:37:01;18.23;;;8.95;;
55497;SDS011;41357;52.806;18.268;2024-03-07T02:39:27;22.00;;;9.57;;
55497;SDS011;41357;52.806;18.268;2024-03-07T02:41:54;20.92;;;9.45;;
55497;SDS011;41357;52.806;18.268;2024-03-07T02:44:20;26.15;;;9.95;;
55497;SDS011;41357;52.806;18.268;2024-03-07T02:46:46;23.65;;;9.27;;
55497;SDS011;41357;52.806;18.268;2024-03-07T02:49:13;29.65;;;9.80;;
55497;SDS011;41357;52.806;18.268;2024-03-07T02:51:42;24.55;;;9.48;;
55497;SDS011;41357;52.806;18.268;2024-03-07T02:54:08;22.40;;;8.48;;
55497;SDS011;41357;52.806;18.268;2024-03-07T02:56:34;19.80;;;8.27;;
55497;SDS011;41357;52.806;18.268;2024-03-07T02:59:00;21.23;;;9.60;;
55497;SDS011;41357;52.806;18.268;2024-03-07T03:01:26;20.20;;;9.13;;
55497;SDS011;41357;52.806;18.268;2024-03-07T03:03:53;22.33;;;8.20;;
55497;SDS011;41357;52.806;18.268;2024-03-07T03:06:19;22.42;;;9.18;;
55497;SDS011;41357;52.806;18.268;2024-03-07T03:08:48;19.25;;;9.32;;
55497;SDS011;41357;52.806;18.268;2024-03-07T03:11:15;20.58;;;8.65;;
55497;SDS011;41357;52.806;18.268;2024-03-07T03:13:41;24.58;;;9.65;;
55497;SDS011;41357;52.806;18.268;2024-03-07T03:16:07;29.30;;;9.75;;
55497;SDS011;41357;52.806;18.268;2024-03-07T03:18:34;21.55;;;10.13;;
55497;SDS011;41357;52.806;18.268;2024-03-07T03:21:01;19.60;;;9.90;;
55497;SDS011;41357;52.806;18.268;2024-03-07T03:23:28;28.45;;;9.57;;
55497;SDS011;41357;52.806;18.268;2024-03-07T03:25:54;21.83;;;8.82;;
55497;SDS011;41357;52.806;18.268;2024-03-07T03:28:20;22.02;;;9.77;;
55497;SDS011;41357;52.806;18.268;2024-03-07T03:30:47;23.58;;;10.20;;
55497;SDS011;41357;52.806;18.268;2024-03-07T03:33:13;24.70;;;10.00;;
55497;SDS011;41357;52.806;18.268;2024-03-07T03:35:40;21.63;;;9.82;;
55497;SDS011;41357;52.806;18.268;2024-03-07T03:38:06;19.55;;;9.45;;
55497;SDS011;41357;52.806;18.268;2024-03-07T03:40:33;21.05;;;8.85;;
55497;SDS011;41357;52.806;18.268;2024-03-07T03:42:59;21.60;;;9.68;;
55497;SDS011;41357;52.806;18.268;2024-03-07T03:45:28;18.13;;;7.85;;
55497;SDS011;41357;52.806;18.268;2024-03-07T03:47:54;16.45;;;7.55;;
55497;SDS011;41357;52.806;18.268;2024-03-07T03:50:20;19.05;;;7.50;;
55497;SDS011;41357;52.806;18.268;2024-03-07T03:52:50;32.38;;;9.10;;
55497;SDS011;41357;52.806;18.268;2024-03-07T03:55:16;22.33;;;8.25;;
55497;SDS011;41357;52.806;18.268;2024-03-07T03:57:42;22.65;;;10.10;;
55497;SDS011;41357;52.806;18.268;2024-03-07T04:00:09;20.10;;;9.07;;
55497;SDS011;41357;52.806;18.268;2024-03-07T04:02:40;19.13;;;8.13;;
55497;SDS011;41357;52.806;18.268;2024-03-07T04:05:07;25.40;;;9.45;;
55497;SDS011;41357;52.806;18.268;2024-03-07T04:07:34;19.30;;;9.27;;
55497;SDS011;41357;52.806;18.268;2024-03-07T04:10:00;20.98;;;8.68;;
55497;SDS011;41357;52.806;18.268;2024-03-07T04:12:32;21.20;;;8.38;;
55497;SDS011;41357;52.806;18.268;2024-03-07T04:14:58;21.58;;;9.00;;
55497;SDS011;41357;52.806;18.268;2024-03-07T04:17:26;20.65;;;9.23;;
55497;SDS011;41357;52.806;18.268;2024-03-07T04:19:52;22.55;;;8.05;;
55497;SDS011;41357;52.806;18.268;2024-03-07T04:22:18;19.13;;;8.23;;
55497;SDS011;41357;52.806;18.268;2024-03-07T04:24:45;20.73;;;8.52;;
55497;SDS011;41357;52.806;18.268;2024-03-07T04:27:11;22.73;;;10.40;;
55497;SDS011;41357;52.806;18.268;2024-03-07T04:29:37;22.30;;;8.57;;
55497;SDS011;41357;52.806;18.268;2024-03-07T04:32:03;25.45;;;10.30;;
55497;SDS011;41357;52.806;18.268;2024-03-07T04:34:30;18.83;;;7.80;;
55497;SDS011;41357;52.806;18.268;2024-03-07T04:36:59;21.17;;;8.93;;
55497;SDS011;41357;52.806;18.268;2024-03-07T04:39:32;21.52;;;9.85;;
55497;SDS011;41357;52.806;18.268;2024-03-07T04:44:28;23.48;;;9.57;;
55497;SDS011;41357;52.806;18.268;2024-03-07T04:46:54;25.40;;;9.25;;
55497;SDS011;41357;52.806;18.268;2024-03-07T04:49:21;20.27;;;9.05;;
55497;SDS011;41357;52.806;18.268;2024-03-07T04:51:52;22.83;;;9.38;;
55497;SDS011;41357;52.806;18.268;2024-03-07T04:54:18;22.92;;;9.60;;
55497;SDS011;41357;52.806;18.268;2024-03-07T04:56:45;21.25;;;8.00;;
55497;SDS011;41357;52.806;18.268;2024-03-07T04:59:11;18.27;;;8.57;;
55497;SDS011;41357;52.806;18.268;2024-03-07T05:01:38;22.55;;;10.15;;
55497;SDS011;41357;52.806;18.268;2024-03-07T05:04:05;23.38;;;9.50;;
55497;SDS011;41357;52.806;18.268;2024-03-07T05:06:31;22.35;;;10.13;;
55497;SDS011;41357;52.806;18.268;2024-03-07T05:09:05;21.80;;;10.07;;
55497;SDS011;41357;52.806;18.268;2024-03-07T05:11:32;32.90;;;12.43;;
55497;SDS011;41357;52.806;18.268;2024-03-07T05:13:59;26.17;;;10.40;;
55497;SDS011;41357;52.806;18.268;2024-03-07T05:16:26;23.30;;;9.57;;
55497;SDS011;41357;52.806;18.268;2024-03-07T05:18:52;29.75;;;10.60;;
55497;SDS011;41357;52.806;18.268;2024-03-07T05:21:18;24.70;;;10.32;;
55497;SDS011;41357;52.806;18.268;2024-03-07T05:23:56;25.67;;;10.52;;
55497;SDS011;41357;52.806;18.268;2024-03-07T05:26:23;24.65;;;10.93;;
55497;SDS011;41357;52.806;18.268;2024-03-07T05:28:49;23.38;;;10.13;;
55497;SDS011;41357;52.806;18.268;2024-03-07T05:31:15;22.60;;;10.18;;
55497;SDS011;41357;52.806;18.268;2024-03-07T05:33:43;32.80;;;11.02;;
55497;SDS011;41357;52.806;18.268;2024-03-07T05:36:09;22.67;;;9.68;;
55497;SDS011;41357;52.806;18.268;2024-03-07T05:38:41;26.95;;;10.80;;
55497;SDS011;41357;52.806;18.268;2024-03-07T05:41:11;32.30;;;11.98;;
55497;SDS011;41357;52.806;18.268;2024-03-07T05:43:40;37.72;;;18.35;;
55497;SDS011;41357;52.806;18.268;2024-03-07T05:46:06;51.78;;;23.23;;
55497;SDS011;41357;52.806;18.268;2024-03-07T05:48:35;38.20;;;19.58;;
55497;SDS011;41357;52.806;18.268;2024-03-07T05:51:01;27.75;;;11.02;;
55497;SDS011;41357;52.806;18.268;2024-03-07T05:53:27;33.22;;;13.30;;
55497;SDS011;41357;52.806;18.268;2024-03-07T05:55:54;23.38;;;11.75;;
55497;SDS011;41357;52.806;18.268;2024-03-07T05:58:20;24.58;;;11.38;;
55497;SDS011;41357;52.806;18.268;2024-03-07T06:00:46;25.20;;;10.65;;
55497;SDS011;41357;52.806;18.268;2024-03-07T06:03:17;32.42;;;11.45;;
55497;SDS011;41357;52.806;18.268;2024-03-07T06:05:47;33.45;;;12.18;;
55497;SDS011;41357;52.806;18.268;2024-03-07T06:08:14;49.20;;;18.13;;
55497;SDS011;41357;52.806;18.268;2024-03-07T06:10:42;48.13;;;17.48;;
55497;SDS011;41357;52.806;18.268;2024-03-07T06:13:08;49.10;;;16.67;;
55497;SDS011;41357;52.806;18.268;2024-03-07T06:15:36;47.13;;;15.10;;
55497;SDS011;41357;52.806;18.268;2024-03-07T06:18:03;56.05;;;14.85;;
55497;SDS011;41357;52.806;18.268;2024-03-07T06:20:29;40.95;;;13.50;;
55497;SDS011;41357;52.806;18.268;2024-03-07T06:22:55;37.75;;;13.23;;
55497;SDS011;41357;52.806;18.268;2024-03-07T06:25:22;30.60;;;12.00;;
55497;SDS011;41357;52.806;18.268;2024-03-07T06:28:02;22.48;;;10.48;;
55497;SDS011;41357;52.806;18.268;2024-03-07T06:30:42;24.08;;;10.55;;
55497;SDS011;41357;52.806;18.268;2024-03-07T06:33:10;26.77;;;11.57;;
55497;SDS011;41357;52.806;18.268;2024-03-07T06:35:36;19.48;;;9.50;;
55497;SDS011;41357;52.806;18.268;2024-03-07T06:38:04;27.23;;;9.75;;
55497;SDS011;41357;52.806;18.268;2024-03-07T06:40:31;22.20;;;9.68;;
55497;SDS011;41357;52.806;18.268;2024-03-07T06:42:58;30.58;;;10.90;;
55497;SDS011;41357;52.806;18.268;2024-03-07T06:45:24;27.80;;;10.65;;
55497;SDS011;41357;52.806;18.268;2024-03-07T06:47:51;24.00;;;9.40;;
55497;SDS011;41357;52.806;18.268;2024-03-07T06:50:20;29.55;;;10.98;;
55497;SDS011;41357;52.806;18.268;2024-03-07T06:52:47;27.52;;;10.20;;
55497;SDS011;41357;52.806;18.268;2024-03-07T06:55:14;27.58;;;11.48;;
55497;SDS011;41357;52.806;18.268;2024-03-07T06:57:42;27.70;;;11.00;;
55497;SDS011;41357;52.806;18.268;2024-03-07T07:00:08;30.65;;;10.80;;
55497;SDS011;41357;52.806;18.268;2024-03-07T07:02:38;69.47;;;18.80;;
55497;SDS011;41357;52.806;18.268;2024-03-07T07:05:08;64.55;;;20.02;;
55497;SDS011;41357;52.806;18.268;2024-03-07T07:07:40;42.28;;;15.57;;
55497;SDS011;41357;52.806;18.268;2024-03-07T07:10:10;35.30;;;13.30;;
55497;SDS011;41357;52.806;18.268;2024-03-07T07:12:50;35.25;;;13.10;;
55497;SDS011;41357;52.806;18.268;2024-03-07T07:15:20;37.00;;;13.25;;
55497;SDS011;41357;52.806;18.268;2024-03-07T07:17:47;46.03;;;13.57;;
55497;SDS011;41357;52.806;18.268;2024-03-07T07:20:17;48.22;;;15.05;;
55497;SDS011;41357;52.806;18.268;2024-03-07T07:22:44;54.45;;;15.88;;
55497;SDS011;41357;52.806;18.268;2024-03-07T07:25:11;55.50;;;15.13;;
55497;SDS011;41357;52.806;18.268;2024-03-07T07:27:44;30.08;;;10.65;;
55497;SDS011;41357;52.806;18.268;2024-03-07T07:30:11;37.85;;;13.40;;
55497;SDS011;41357;52.806;18.268;2024-03-07T07:32:37;37.00;;;12.07;;
55497;SDS011;41357;52.806;18.268;2024-03-07T07:35:04;29.25;;;9.93;;
55497;SDS011;41357;52.806;18.268;2024-03-07T07:37:36;21.83;;;9.93;;
55497;SDS011;41357;52.806;18.268;2024-03-07T07:40:03;17.10;;;7.80;;
55497;SDS011;41357;52.806;18.268;2024-03-07T07:42:29;20.75;;;9.38;;
55497;SDS011;41357;52.806;18.268;2024-03-07T07:44:55;21.95;;;9.35;;
55497;SDS011;41357;52.806;18.268;2024-03-07T07:47:21;22.55;;;10.00;;
55497;SDS011;41357;52.806;18.268;2024-03-07T07:49:47;46.08;;;14.35;;
55497;SDS011;41357;52.806;18.268;2024-03-07T07:52:14;20.52;;;10.05;;
55497;SDS011;41357;52.806;18.268;2024-03-07T07:54:42;27.92;;;10.95;;
55497;SDS011;41357;52.806;18.268;2024-03-07T07:57:08;15.80;;;7.45;;
55497;SDS011;41357;52.806;18.268;2024-03-07T07:59:34;18.10;;;8.27;;
55497;SDS011;41357;52.806;18.268;2024-03-07T08:02:02;19.92;;;8.20;;
55497;SDS011;41357;52.806;18.268;2024-03-07T08:04:31;31.98;;;11.10;;
55497;SDS011;41357;52.806;18.268;2024-03-07T08:07:00;34.33;;;12.05;;
55497;SDS011;41357;52.806;18.268;2024-03-07T08:09:26;33.85;;;10.65;;
55497;SDS011;41357;52.806;18.268;2024-03-07T08:11:52;55.20;;;15.43;;
55497;SDS011;41357;52.806;18.268;2024-03-07T08:14:18;32.83;;;11.88;;
55497;SDS011;41357;52.806;18.268;2024-03-07T08:16:48;22.85;;;8.93;;
55497;SDS011;41357;52.806;18.268;2024-03-07T08:19:15;14.05;;;7.47;;
55497;SDS011;41357;52.806;18.268;2024-03-07T08:21:41;19.75;;;8.88;;
55497;SDS011;41357;52.806;18.268;2024-03-07T08:24:07;18.58;;;8.98;;
55497;SDS011;41357;52.806;18.268;2024-03-07T08:26:36;20.85;;;9.55;;
55497;SDS011;41357;52.806;18.268;2024-03-07T08:29:02;17.40;;;8.30;;
55497;SDS011;41357;52.806;18.268;2024-03-07T08:31:30;17.48;;;8.32;;
55497;SDS011;41357;52.806;18.268;2024-03-07T08:33:56;16.05;;;7.97;;
55497;SDS011;41357;52.806;18.268;2024-03-07T08:36:22;14.88;;;7.07;;
55497;SDS011;41357;52.806;18.268;2024-03-07T08:38:48;16.63;;;8.20;;
55497;SDS011;41357;52.806;18.268;2024-03-07T08:41:17;20.75;;;8.57;;
55497;SDS011;41357;52.806;18.268;2024-03-07T08:43:43;18.83;;;8.35;;
55497;SDS011;41357;52.806;18.268;2024-03-07T08:46:09;21.50;;;8.88;;
55497;SDS011;41357;52.806;18.268;2024-03-07T08:48:36;18.85;;;7.75;;
55497;SDS011;41357;52.806;18.268;2024-03-07T08:51:03;14.85;;;7.18;;
55497;SDS011;41357;52.806;18.268;2024-03-07T08:53:29;20.42;;;8.23;;
55497;SDS011;41357;52.806;18.268;2024-03-07T08:55:55;20.65;;;8.98;;
55497;SDS011;41357;52.806;18.268;2024-03-07T08:58:23;19.10;;;9.18;;
55497;SDS011;41357;52.806;18.268;2024-03-07T09:00:49;24.73;;;8.65;;
55497;SDS011;41357;52.806;18.268;2024-03-07T09:03:17;18.77;;;7.78;;
55497;SDS011;41357;52.806;18.268;2024-03-07T09:05:43;18.35;;;6.25;;
55497;SDS011;41357;52.806;18.268;2024-03-07T09:08:09;12.15;;;5.45;;
55497;SDS011;41357;52.806;18.268;2024-03-07T09:10:36;18.58;;;6.82;;
55497;SDS011;41357;52.806;18.268;2024-03-07T09:13:06;14.50;;;6.82;;
55497;SDS011;41357;52.806;18.268;2024-03-07T09:15:32;16.05;;;7.18;;
55497;SDS011;41357;52.806;18.268;2024-03-07T09:17:58;14.73;;;6.75;;
55497;SDS011;41357;52.806;18.268;2024-03-07T09:20:26;12.63;;;5.82;;
55497;SDS011;41357;52.806;18.268;2024-03-07T09:22:52;10.07;;;4.95;;
55497;SDS011;41357;52.806;18.268;2024-03-07T09:25:19;16.52;;;7.63;;
55497;SDS011;41357;52.806;18.268;2024-03-07T09:27:45;17.33;;;8.02;;
55497;SDS011;41357;52.806;18.268;2024-03-07T09:30:12;15.15;;;7.28;;
55497;SDS011;41357;52.806;18.268;2024-03-07T09:32:40;18.73;;;8.68;;
55497;SDS011;41357;52.806;18.268;2024-03-07T09:35:09;15.23;;;6.65;;
55497;SDS011;41357;52.806;18.268;2024-03-07T09:37:42;17.13;;;7.85;;
55497;SDS011;41357;52.806;18.268;2024-03-07T09:40:08;13.70;;;6.70;;
55497;SDS011;41357;52.806;18.268;2024-03-07T09:42:45;15.70;;;6.88;;
55497;SDS011;41357;52.806;18.268;2024-03-07T09:45:16;16.88;;;8.35;;
55497;SDS011;41357;52.806;18.268;2024-03-07T09:47:44;16.45;;;6.97;;
55497;SDS011;41357;52.806;18.268;2024-03-07T09:50:11;17.85;;;7.15;;
55497;SDS011;41357;52.806;18.268;2024-03-07T09:52:38;14.75;;;7.47;;
55497;SDS011;41357;52.806;18.268;2024-03-07T09:55:04;16.02;;;7.85;;
55497;SDS011;41357;52.806;18.268;2024-03-07T09:57:33;14.82;;;7.00;;
55497;SDS011;41357;52.806;18.268;2024-03-07T10:00:00;16.05;;;7.50;;
55497;SDS011;41357;52.806;18.268;2024-03-07T10:02:28;14.95;;;6.15;;
55497;SDS011;41357;52.806;18.268;2024-03-07T10:04:55;17.30;;;7.20;;
55497;SDS011;41357;52.806;18.268;2024-03-07T10:07:22;16.65;;;6.97;;
55497;SDS011;41357;52.806;18.268;2024-03-07T10:09:48;18.15;;;8.07;;
55497;SDS011;41357;52.806;18.268;2024-03-07T10:12:16;19.70;;;7.95;;
55497;SDS011;41357;52.806;18.268;2024-03-07T10:14:50;23.00;;;8.32;;
55497;SDS011;41357;52.806;18.268;2024-03-07T10:17:17;12.30;;;5.40;;
55497;SDS011;41357;52.806;18.268;2024-03-07T10:19:49;15.98;;;6.82;;
55497;SDS011;41357;52.806;18.268;2024-03-07T10:22:16;22.92;;;8.90;;
55497;SDS011;41357;52.806;18.268;2024-03-07T10:24:49;9.88;;;5.00;;
55497;SDS011;41357;52.806;18.268;2024-03-07T10:27:17;18.83;;;7.22;;
55497;SDS011;41357;52.806;18.268;2024-03-07T10:29:45;14.73;;;6.55;;
55497;SDS011;41357;52.806;18.268;2024-03-07T10:32:11;18.73;;;6.68;;
55497;SDS011;41357;52.806;18.268;2024-03-07T10:34:38;15.52;;;7.03;;
55497;SDS011;41357;52.806;18.268;2024-03-07T10:37:04;15.25;;;6.60;;
55497;SDS011;41357;52.806;18.268;2024-03-07T10:39:34;10.55;;;5.05;;
55497;SDS011;41357;52.806;18.268;2024-03-07T10:42:00;9.05;;;4.57;;
55497;SDS011;41357;52.806;18.268;2024-03-07T10:44:30;13.65;;;5.82;;
55497;SDS011;41357;52.806;18.268;2024-03-07T10:46:57;14.85;;;6.53;;
55497;SDS011;41357;52.806;18.268;2024-03-07T10:49:29;10.98;;;5.50;;
55497;SDS011;41357;52.806;18.268;2024-03-07T10:55:04;19.75;;;7.75;;
55497;SDS011;41357;52.806;18.268;2024-03-07T10:57:41;10.13;;;5.32;;
55497;SDS011;41357;52.806;18.268;2024-03-07T11:00:12;11.68;;;5.70;;
55497;SDS011;41357;52.806;18.268;2024-03-07T11:02:57;11.40;;;5.60;;
55497;SDS011;41357;52.806;18.268;2024-03-07T11:05:26;12.45;;;5.65;;
55497;SDS011;41357;52.806;18.268;2024-03-07T11:07:59;13.10;;;4.97;;
55497;SDS011;41357;52.806;18.268;2024-03-07T11:10:36;9.32;;;4.45;;
55497;SDS011;41357;52.806;18.268;2024-03-07T11:13:11;12.98;;;5.18;;
55497;SDS011;41357;52.806;18.268;2024-03-07T11:15:43;13.77;;;4.72;;
55497;SDS011;41357;52.806;18.268;2024-03-07T11:18:10;10.95;;;5.38;;
55497;SDS011;41357;52.806;18.268;2024-03-07T11:20:38;10.77;;;5.25;;
55497;SDS011;41357;52.806;18.268;2024-03-07T11:25:53;11.98;;;5.38;;
55497;SDS011;41357;52.806;18.268;2024-03-07T11:28:19;13.13;;;5.35;;
55497;SDS011;41357;52.806;18.268;2024-03-07T11:30:45;8.65;;;4.63;;
55497;SDS011;41357;52.806;18.268;2024-03-07T11:33:11;13.48;;;4.85;;
55497;SDS011;41357;52.806;18.268;2024-03-07T11:35:39;10.70;;;5.60;;
55497;SDS011;41357;52.806;18.268;2024-03-07T11:38:06;13.98;;;6.15;;
55497;SDS011;41357;52.806;18.268;2024-03-07T11:43:00;13.63;;;5.40;;
55497;SDS011;41357;52.806;18.268;2024-03-07T11:45:29;11.65;;;5.47;;
55497;SDS011;41357;52.806;18.268;2024-03-07T11:47:59;13.07;;;5.30;;
55497;SDS011;41357;52.806;18.268;2024-03-07T11:50:31;20.52;;;9.23;;
55497;SDS011;41357;52.806;18.268;2024-03-07T11:53:00;19.25;;;7.00;;
55497;SDS011;41357;52.806;18.268;2024-03-07T11:55:27;13.10;;;5.75;;
55497;SDS011;41357;52.806;18.268;2024-03-07T11:58:20;12.27;;;5.22;;
55497;SDS011;41357;52.806;18.268;2024-03-07T12:00:46;10.00;;;4.75;;
55497;SDS011;41357;52.806;18.268;2024-03-07T12:03:13;10.07;;;4.68;;
55497;SDS011;41357;52.806;18.268;2024-03-07T12:05:40;11.75;;;5.22;;
55497;SDS011;41357;52.806;18.268;2024-03-07T12:08:07;11.90;;;5.05;;
55497;SDS011;41357;52.806;18.268;2024-03-07T12:10:35;20.40;;;8.35;;
55497;SDS011;41357;52.806;18.268;2024-03-07T12:13:01;14.50;;;6.00;;
55497;SDS011;41357;52.806;18.268;2024-03-07T12:15:27;9.02;;;4.22;;
55497;SDS011;41357;52.806;18.268;2024-03-07T12:17:53;10.27;;;5.28;;
55497;SDS011;41357;52.806;18.268;2024-03-07T12:20:20;14.38;;;5.68;;
55497;SDS011;41357;52.806;18.268;2024-03-07T12:22:59;14.05;;;5.18;;
55497;SDS011;41357;52.806;18.268;2024-03-07T12:25:30;13.73;;;5.13;;
55497;SDS011;41357;52.806;18.268;2024-03-07T12:28:13;10.80;;;4.97;;
55497;SDS011;41357;52.806;18.268;2024-03-07T12:33:18;12.85;;;5.55;;
55497;SDS011;41357;52.806;18.268;2024-03-07T12:35:45;16.20;;;5.35;;
55497;SDS011;41357;52.806;18.268;2024-03-07T12:38:13;12.02;;;5.25;;
55497;SDS011;41357;52.806;18.268;2024-03-07T12:40:44;14.20;;;6.93;;
55497;SDS011;41357;52.806;18.268;2024-03-07T12:43:17;16.55;;;5.78;;
55497;SDS011;41357;52.806;18.268;2024-03-07T12:45:50;13.23;;;5.30;;
55497;SDS011;41357;52.806;18.268;2024-03-07T12:48:17;15.10;;;5.38;;
55497;SDS011;41357;52.806;18.268;2024-03-07T12:50:48;11.02;;;5.18;;
55497;SDS011;41357;52.806;18.268;2024-03-07T12:53:20;18.40;;;5.20;;
55497;SDS011;41357;52.806;18.268;2024-03-07T12:55:47;10.27;;;5.32;;
55497;SDS011;41357;52.806;18.268;2024-03-07T12:58:13;10.27;;;4.47;;
55497;SDS011;41357;52.806;18.268;2024-03-07T13:00:40;9.23;;;4.82;;
55497;SDS011;41357;52.806;18.268;2024-03-07T13:03:07;11.00;;;4.78;;
55497;SDS011;41357;52.806;18.268;2024-03-07T13:05:38;8.40;;;4.43;;
55497;SDS011;41357;52.806;18.268;2024-03-07T13:08:08;10.77;;;5.03;;
55497;SDS011;41357;52.806;18.268;2024-03-07T13:10:46;12.15;;;4.88;;
55497;SDS011;41357;52.806;18.268;2024-03-07T13:13:12;13.38;;;5.68;;
55497;SDS011;41357;52.806;18.268;2024-03-07T13:15:39;9.43;;;4.95;;
55497;SDS011;41357;52.806;18.268;2024-03-07T13:18:07;8.75;;;5.30;;
55497;SDS011;41357;52.806;18.268;2024-03-07T13:20:34;13.05;;;4.90;;
55497;SDS011;41357;52.806;18.268;2024-03-07T13:23:01;12.85;;;5.85;;
55497;SDS011;41357;52.806;18.268;2024-03-07T13:25:27;9.30;;;4.40;;
55497;SDS011;41357;52.806;18.268;2024-03-07T13:28:02;9.30;;;5.13;;
55497;SDS011;41357;52.806;18.268;2024-03-07T13:30:32;10.55;;;4.78;;
55497;SDS011;41357;52.806;18.268;2024-03-07T13:33:01;11.05;;;5.20;;
55497;SDS011;41357;52.806;18.268;2024-03-07T13:35:28;12.32;;;4.93;;
55497;SDS011;41357;52.806;18.268;2024-03-07T13:37:54;10.63;;;4.82;;
55497;SDS011;41357;52.806;18.268;2024-03-07T13:40:21;12.15;;;4.97;;
55497;SDS011;41357;52.806;18.268;2024-03-07T13:42:57;13.73;;;4.70;;
55497;SDS011;41357;52.806;18.268;2024-03-07T13:45:25;10.00;;;5.05;;
55497;SDS011;41357;52.806;18.268;2024-03-07T13:47:54;14.18;;;5.40;;
55497;SDS011;41357;52.806;18.268;2024-03-07T13:50:25;12.43;;;5.65;;
55497;SDS011;41357;52.806;18.268;2024-03-07T13:52:53;9.32;;;5.28;;
55497;SDS011;41357;52.806;18.268;2024-03-07T13:58:23;10.60;;;5.18;;
55497;SDS011;41357;52.806;18.268;2024-03-07T14:00:53;10.88;;;4.88;;
55497;SDS011;41357;52.806;18.268;2024-03-07T14:06:03;9.50;;;5.50;;
55497;SDS011;41357;52.806;18.268;2024-03-07T14:23:04;21.15;;;6.72;;
55497;SDS011;41357;52.806;18.268;2024-03-07T14:33:08;15.50;;;6.25;;
55497;SDS011;41357;52.806;18.268;2024-03-07T14:35:39;14.52;;;6.35;;
55497;SDS011;41357;52.806;18.268;2024-03-07T14:38:22;18.95;;;4.80;;
55497;SDS011;41357;52.806;18.268;2024-03-07T14:40:49;14.63;;;6.40;;
55497;SDS011;41357;52.806;18.268;2024-03-07T14:43:16;34.80;;;17.80;;
55497;SDS011;41357;52.806;18.268;2024-03-07T14:45:44;16.75;;;6.13;;
55497;SDS011;41357;52.806;18.268;2024-03-07T14:48:11;12.38;;;5.25;;
55497;SDS011;41357;52.806;18.268;2024-03-07T14:50:40;22.95;;;7.85;;
55497;SDS011;41357;52.806;18.268;2024-03-07T14:53:07;29.38;;;11.07;;
55497;SDS011;41357;52.806;18.268;2024-03-07T14:55:34;15.48;;;7.75;;
55497;SDS011;41357;52.806;18.268;2024-03-07T14:58:01;15.70;;;7.68;;
55497;SDS011;41357;52.806;18.268;2024-03-07T15:00:27;14.10;;;6.95;;
55497;SDS011;41357;52.806;18.268;2024-03-07T15:02:58;12.80;;;5.57;;